createdAt,value
2023-02-12T00:01:56.972Z,100333.78
2023-02-12T00:04:23.360Z,100339.13
2023-02-12T00:06:49.705Z,100330.53
2023-02-12T00:09:16.058Z,100333.44
2023-02-12T00:11:42.377Z,100336.34
2023-02-12T00:14:08.708Z,100341.31
2023-02-12T00:16:35.069Z,100341.31
2023-02-12T00:19:01.445Z,100340.72
2023-02-12T00:21:27.830Z,100335.63
2023-02-12T00:23:54.161Z,100332.13
2023-02-12T00:26:21.010Z,100325.38
2023-02-12T00:28:47.318Z,100331.00
2023-02-12T00:31:14.577Z,100337.50
2023-02-12T00:33:40.935Z,100334.34
2023-02-12T00:36:07.590Z,100340.31
2023-02-12T00:38:33.949Z,100332.50
2023-02-12T00:41:00.270Z,100335.41
2023-02-12T00:43:26.588Z,100334.22
2023-02-12T00:45:53.200Z,100338.75
2023-02-12T00:48:19.725Z,100341.28
2023-02-12T00:50:46.209Z,100333.34
2023-02-12T00:53:12.668Z,100344.72
2023-02-12T00:55:38.988Z,100349.09
2023-02-12T00:58:05.315Z,100344.66
2023-02-12T01:00:32.440Z,100346.78
2023-02-12T01:02:58.796Z,100351.47
2023-02-12T01:05:25.418Z,100348.19
2023-02-12T01:07:51.939Z,100354.00
2023-02-12T01:10:18.319Z,100361.38
2023-02-12T01:15:10.861Z,100350.56
2023-02-12T01:17:37.170Z,100358.56
2023-02-12T01:20:05.736Z,100358.19
2023-02-12T01:22:32.061Z,100357.00
2023-02-12T01:24:58.394Z,100359.22
2023-02-12T01:27:24.714Z,100356.56
2023-02-12T01:29:51.070Z,100360.69
2023-02-12T01:32:17.483Z,100368.94
2023-02-12T01:34:43.877Z,100356.00
2023-02-12T01:37:10.273Z,100363.44
2023-02-12T01:39:36.629Z,100356.66
2023-02-12T01:42:03.415Z,100353.63
2023-02-12T01:44:29.878Z,100360.63
2023-02-12T01:46:57.355Z,100364.34
2023-02-12T01:49:29.307Z,100365.22
2023-02-12T01:51:57.924Z,100366.28
2023-02-12T01:54:26.052Z,100371.00
2023-02-12T01:56:52.377Z,100377.75
2023-02-12T01:59:18.892Z,100370.22
2023-02-12T02:01:45.279Z,100368.78
2023-02-12T02:04:12.510Z,100362.84
2023-02-12T02:06:41.719Z,100372.09
2023-02-12T02:09:08.033Z,100368.03
2023-02-12T02:11:53.117Z,100364.72
2023-02-12T02:14:34.676Z,100356.38
2023-02-12T02:17:19.672Z,100350.41
2023-02-12T02:19:48.979Z,100355.34
2023-02-12T02:22:21.247Z,100355.59
2023-02-12T02:24:50.573Z,100352.31
2023-02-12T02:27:21.016Z,100348.00
2023-02-12T02:29:50.031Z,100350.06
2023-02-12T02:32:23.571Z,100350.31
2023-02-12T02:34:50.676Z,100345.97
2023-02-12T02:37:18.583Z,100345.38
2023-02-12T02:39:52.836Z,100345.38
2023-02-12T02:42:22.094Z,100340.06
2023-02-12T02:44:50.103Z,100347.47
2023-02-12T02:47:16.829Z,100342.31
2023-02-12T02:49:44.783Z,100339.88
2023-02-12T02:52:12.599Z,100348.91
2023-02-12T02:54:40.598Z,100348.31
2023-02-12T02:57:17.610Z,100350.38
2023-02-12T02:59:45.221Z,100355.91
2023-02-12T03:02:33.445Z,100355.53
2023-02-12T03:05:19.693Z,100343.66
2023-02-12T03:07:47.478Z,100349.81
2023-02-12T03:10:15.448Z,100347.38
2023-02-12T03:12:47.749Z,100350.44
2023-02-12T03:15:16.362Z,100349.00
2023-02-12T03:17:43.560Z,100358.66
2023-02-12T03:20:14.371Z,100351.69
2023-02-12T03:22:41.209Z,100354.78
2023-02-12T03:25:12.054Z,100360.13
2023-02-12T03:27:39.228Z,100361.56
2023-02-12T03:30:05.794Z,100361.78
2023-02-12T03:32:38.072Z,100359.72
2023-02-12T03:35:16.633Z,100361.56
2023-02-12T03:37:51.976Z,100363.41
2023-02-12T03:40:37.199Z,100355.44
2023-02-12T03:43:05.077Z,100358.28
2023-02-12T03:45:37.822Z,100356.66
2023-02-12T03:48:11.744Z,100355.03
2023-02-12T03:50:44.794Z,100357.09
2023-02-12T03:53:11.108Z,100361.19
2023-02-12T03:55:38.523Z,100362.22
2023-02-12T03:58:04.832Z,100360.78
2023-02-12T04:00:31.178Z,100358.53
2023-02-12T04:02:57.485Z,100366.53
2023-02-12T04:05:24.873Z,100366.75
2023-02-12T04:07:51.382Z,100373.91
2023-02-12T04:10:17.829Z,100379.47
2023-02-12T04:12:51.536Z,100377.00
2023-02-12T04:15:33.188Z,100381.50
2023-02-12T04:18:07.644Z,100386.03
2023-02-12T04:20:52.961Z,100380.28
2023-02-12T04:23:37.713Z,100381.31
2023-02-12T04:26:04.033Z,100378.06
2023-02-12T04:28:49.142Z,100378.06
2023-02-12T04:31:21.730Z,100385.03
2023-02-12T04:33:49.233Z,100382.78
2023-02-12T04:36:16.730Z,100391.38
2023-02-12T04:38:55.929Z,100392.41
2023-02-12T04:41:22.551Z,100394.25
2023-02-12T04:43:48.875Z,100393.44
2023-02-12T04:46:15.439Z,100396.31
2023-02-12T04:48:49.854Z,100396.72
2023-02-12T04:51:16.193Z,100399.19
2023-02-12T04:53:42.499Z,100398.38
2023-02-12T04:56:10.905Z,100396.53
2023-02-12T04:58:37.737Z,100396.75
2023-02-12T05:01:04.182Z,100403.94
2023-02-12T05:03:30.541Z,100403.28
2023-02-12T05:05:57.109Z,100402.47
2023-02-12T05:08:24.085Z,100408.03
2023-02-12T05:10:50.424Z,100409.06
2023-02-12T05:13:16.748Z,100405.59
2023-02-12T05:15:43.078Z,100403.09
2023-02-12T05:18:09.394Z,100404.53
2023-02-12T05:20:35.707Z,100406.59
2023-02-12T05:23:02.034Z,100404.16
2023-02-12T05:25:28.347Z,100409.69
2023-02-12T05:27:56.670Z,100415.22
2023-02-12T05:30:23.004Z,100407.44
2023-02-12T05:32:49.546Z,100404.97
2023-02-12T05:35:15.879Z,100411.31
2023-02-12T05:37:42.181Z,100416.06
2023-02-12T05:40:08.886Z,100409.91
2023-02-12T05:42:35.216Z,100401.28
2023-02-12T05:45:01.534Z,100406.84
2023-02-12T05:47:27.865Z,100407.88
2023-02-12T05:49:54.467Z,100404.34
2023-02-12T05:52:20.799Z,100408.06
2023-02-12T05:54:48.997Z,100408.28
2023-02-12T05:57:15.328Z,100407.47
2023-02-12T05:59:41.631Z,100413.59
2023-02-12T06:02:08.016Z,100410.94
2023-02-12T06:04:34.340Z,100415.44
2023-02-12T06:07:00.725Z,100417.88
2023-02-12T06:09:27.061Z,100410.94
2023-02-12T06:11:53.629Z,100412.34
2023-02-12T06:14:20.016Z,100417.88
2023-02-12T06:16:46.940Z,100404.34
2023-02-12T06:19:13.253Z,100417.66
2023-02-12T06:21:39.604Z,100414.81
2023-02-12T06:24:05.920Z,100419.34
2023-02-12T06:26:32.247Z,100415.84
2023-02-12T06:28:58.751Z,100412.56
2023-02-12T06:31:31.895Z,100415.03
2023-02-12T06:34:00.051Z,100419.31
2023-02-12T06:36:26.367Z,100426.50
2023-02-12T06:38:52.702Z,100424.22
2023-02-12T06:41:20.535Z,100422.81
2023-02-12T06:43:46.864Z,100422.81
2023-02-12T06:46:13.231Z,100428.34
2023-02-12T06:48:39.603Z,100435.28
2023-02-12T06:51:06.049Z,100440.44
2023-02-12T06:53:32.784Z,100445.75
2023-02-12T06:56:00.576Z,100443.09
2023-02-12T06:58:26.888Z,100447.56
2023-02-12T07:00:53.215Z,100447.56
2023-02-12T07:03:19.560Z,100446.75
2023-02-12T07:05:46.168Z,100453.13
2023-02-12T07:08:12.480Z,100457.84
2023-02-12T07:10:38.793Z,100460.28
2023-02-12T07:13:05.176Z,100465.63
2023-02-12T07:15:31.492Z,100473.81
2023-02-12T07:17:57.832Z,100471.34
2023-02-12T07:20:24.148Z,100470.72
2023-02-12T07:22:50.488Z,100485.06
2023-02-12T07:25:16.792Z,100484.03
2023-02-12T07:27:43.116Z,100482.41
2023-02-12T07:30:09.557Z,100485.88
2023-02-12T07:32:35.941Z,100483.22
2023-02-12T07:35:02.259Z,100491.22
2023-02-12T07:37:28.717Z,100494.91
2023-02-12T07:39:55.094Z,100494.91
2023-02-12T07:42:21.405Z,100499.38
2023-02-12T07:44:48.203Z,100497.56
2023-02-12T07:47:15.206Z,100504.06
2023-02-12T07:49:41.516Z,100498.97
2023-02-12T07:52:07.819Z,100505.31
2023-02-12T07:54:34.207Z,100500.59
2023-02-12T07:57:00.633Z,100501.88
2023-02-12T07:59:27.049Z,100503.50
2023-02-12T08:01:53.366Z,100505.34
2023-02-12T08:04:23.943Z,100510.44
2023-02-12T08:06:50.810Z,100506.75
2023-02-12T08:09:18.224Z,100512.94
2023-02-12T08:11:44.594Z,100512.94
2023-02-12T08:14:11.404Z,100511.47
2023-02-12T08:16:38.380Z,100514.50
2023-02-12T08:19:16.993Z,100512.25
2023-02-12T08:21:45.476Z,100510.22
2023-02-12T08:24:12.019Z,100520.84
2023-02-12T08:26:38.602Z,100517.41
2023-02-12T08:29:05.928Z,100525.00
2023-02-12T08:31:32.926Z,100523.16
2023-02-12T08:33:59.249Z,100524.19
2023-02-12T08:36:26.391Z,100525.81
2023-02-12T08:38:52.752Z,100531.16
2023-02-12T08:41:21.385Z,100530.31
2023-02-12T08:43:49.250Z,100536.69
2023-02-12T08:46:16.894Z,100527.69
2023-02-12T08:48:43.587Z,100525.84
2023-02-12T08:51:17.317Z,100531.38
2023-02-12T08:53:43.828Z,100538.13
2023-02-12T08:56:10.376Z,100525.63
2023-02-12T08:58:36.748Z,100525.22
2023-02-12T09:01:03.512Z,100527.91
2023-02-12T09:03:29.865Z,100527.25
2023-02-12T09:05:56.734Z,100525.84
2023-02-12T09:08:23.230Z,100525.84
2023-02-12T09:10:49.539Z,100525.84
2023-02-12T09:13:15.897Z,100537.09
2023-02-12T09:15:44.859Z,100536.91
2023-02-12T09:18:11.500Z,100522.13
2023-02-12T09:20:38.912Z,100540.81
2023-02-12T09:23:05.869Z,100537.50
2023-02-12T09:25:34.366Z,100533.63
2023-02-12T09:28:01.461Z,100542.81
2023-02-12T09:30:27.909Z,100538.91
2023-02-12T09:32:54.728Z,100543.63
2023-02-12T09:35:21.058Z,100544.28
2023-02-12T09:37:47.655Z,100545.28
2023-02-12T09:40:18.878Z,100550.00
2023-02-12T09:43:04.059Z,100549.38
2023-02-12T09:45:32.961Z,100549.16
2023-02-12T09:48:05.194Z,100550.63
2023-02-12T09:50:37.634Z,100553.06
2023-02-12T09:53:04.286Z,100548.59
2023-02-12T09:55:31.260Z,100561.91
2023-02-12T09:57:57.586Z,100558.59
2023-02-12T10:00:25.040Z,100546.09
2023-02-12T10:02:51.983Z,100548.59
2023-02-12T10:05:29.033Z,100548.78
2023-02-12T10:07:58.361Z,100554.31
2023-02-12T10:10:31.484Z,100552.25
2023-02-12T10:12:58.940Z,100548.38
2023-02-12T10:15:38.772Z,100552.06
2023-02-12T10:18:20.370Z,100554.72
2023-02-12T10:20:49.137Z,100550.41
2023-02-12T10:23:21.462Z,100552.47
2023-02-12T10:25:53.847Z,100551.63
2023-02-12T10:28:25.333Z,100558.63
2023-02-12T10:30:59.077Z,100557.78
2023-02-12T10:33:31.281Z,100557.78
2023-02-12T10:36:05.015Z,100563.75
2023-02-12T10:38:32.737Z,100562.75
2023-02-12T10:41:01.788Z,100568.88
2023-02-12T10:43:28.451Z,100565.19
2023-02-12T10:45:55.011Z,100555.75
2023-02-12T10:48:24.582Z,100561.28
2023-02-12T10:50:59.994Z,100561.72
2023-02-12T10:53:29.613Z,100556.16
2023-02-12T10:56:06.693Z,100564.97
2023-02-12T10:58:33.278Z,100561.88
2023-02-12T11:01:00.156Z,100566.19
2023-02-12T11:03:30.446Z,100562.91
2023-02-12T11:05:57.313Z,100552.47
2023-02-12T11:08:29.890Z,100557.41
2023-02-12T11:10:56.223Z,100553.09
2023-02-12T11:13:23.473Z,100556.78
2023-02-12T11:15:49.936Z,100545.09
2023-02-12T11:18:25.207Z,100550.84
2023-02-12T11:20:55.964Z,100557.19
2023-02-12T11:23:29.765Z,100547.97
2023-02-12T11:26:05.879Z,100553.72
2023-02-12T11:28:32.627Z,100559.84
2023-02-12T11:31:03.012Z,100556.16
2023-02-12T11:33:30.473Z,100547.75
2023-02-12T11:35:57.838Z,100559.25
2023-02-12T11:38:25.215Z,100545.91
2023-02-12T11:40:52.444Z,100544.72
2023-02-12T11:43:19.153Z,100547.38
2023-02-12T11:45:49.776Z,100547.75
2023-02-12T11:48:37.610Z,100540.59
2023-02-12T11:51:04.313Z,100546.34
2023-02-12T11:53:32.162Z,100546.53
2023-02-12T11:56:00.072Z,100546.53
2023-02-12T11:58:26.802Z,100544.91
2023-02-12T12:00:58.941Z,100537.91
2023-02-12T12:03:45.456Z,100549.00
2023-02-12T12:06:14.556Z,100552.88
2023-02-12T12:08:53.136Z,100549.78
2023-02-12T12:11:42.812Z,100550.81
2023-02-12T12:14:13.449Z,100549.19
2023-02-12T12:17:02.585Z,100543.03
2023-02-12T12:19:50.176Z,100544.91
2023-02-12T12:22:18.837Z,100545.94
2023-02-12T12:24:52.131Z,100537.09
2023-02-12T12:27:40.458Z,100536.69
2023-02-12T12:30:10.944Z,100539.75
2023-02-12T12:32:37.579Z,100537.09
2023-02-12T12:35:03.891Z,100533.44
2023-02-12T12:37:37.672Z,100535.88
2023-02-12T12:40:08.207Z,100527.28
2023-02-12T12:42:41.100Z,100530.94
2023-02-12T12:45:26.149Z,100526.66
2023-02-12T12:47:55.798Z,100531.97
2023-02-12T12:50:37.439Z,100527.69
2023-02-12T12:53:04.156Z,100532.78
2023-02-12T12:55:49.080Z,100523.16
2023-02-12T12:58:19.007Z,100525.84
2023-02-12T13:00:48.683Z,100518.66
2023-02-12T13:03:18.040Z,100516.44
2023-02-12T13:05:44.305Z,100516.81
2023-02-12T13:08:15.236Z,100508.00
2023-02-12T13:10:44.518Z,100509.03
2023-02-12T13:13:15.474Z,100514.97
2023-02-12T13:15:50.784Z,100511.69
2023-02-12T13:18:19.850Z,100501.25
2023-02-12T13:20:55.271Z,100502.91
2023-02-12T13:23:24.090Z,100498.59
2023-02-12T13:25:59.900Z,100501.25
2023-02-12T13:28:30.077Z,100495.94
2023-02-12T13:30:56.615Z,100498.59
2023-02-12T13:33:27.731Z,100499.59
2023-02-12T13:35:59.236Z,100501.25
2023-02-12T13:38:26.175Z,100495.13
2023-02-12T13:40:53.357Z,100502.47
2023-02-12T13:43:19.637Z,100503.13
2023-02-12T13:45:53.108Z,100499.22
2023-02-12T13:48:38.400Z,100504.94
2023-02-12T13:51:04.731Z,100501.25
2023-02-12T13:53:49.801Z,100500.81
2023-02-12T13:56:29.650Z,100500.63
2023-02-12T13:58:56.251Z,100492.59
2023-02-12T14:01:34.873Z,100500.16
2023-02-12T14:04:14.021Z,100502.75
2023-02-12T14:06:40.336Z,100496.50
2023-02-12T14:09:10.131Z,100489.06
2023-02-12T14:11:46.312Z,100497.47
2023-02-12T14:14:12.626Z,100499.69
2023-02-12T14:16:39.734Z,100505.84
2023-02-12T14:19:24.915Z,100499.91
2023-02-12T14:21:51.237Z,100500.53
2023-02-12T14:24:35.937Z,100497.44
2023-02-12T14:27:03.195Z,100492.69
2023-02-12T14:29:29.508Z,100501.69
2023-02-12T14:31:56.441Z,100494.47
2023-02-12T14:34:22.736Z,100492.78
2023-02-12T14:36:49.242Z,100496.44
2023-02-12T14:39:22.215Z,100497.41
2023-02-12T14:41:48.974Z,100499.25
2023-02-12T14:44:18.195Z,100504.59
2023-02-12T14:46:54.190Z,100502.28
2023-02-12T14:49:27.064Z,100506.38
2023-02-12T14:51:53.343Z,100504.53
2023-02-12T14:54:27.769Z,100504.31
2023-02-12T14:56:55.585Z,100512.88
2023-02-12T14:59:23.085Z,100509.13
2023-02-12T15:01:49.454Z,100511.75
2023-02-12T15:04:28.767Z,100499.59
2023-02-12T15:06:56.710Z,100509.03
2023-02-12T15:09:35.624Z,100511.50
2023-02-12T15:12:06.119Z,100505.72
2023-02-12T15:14:32.424Z,100503.25
2023-02-12T15:16:59.954Z,100511.41
2023-02-12T15:19:30.750Z,100504.06
2023-02-12T15:21:57.108Z,100503.84
2023-02-12T15:24:24.148Z,100508.59
2023-02-12T15:26:51.459Z,100497.91
2023-02-12T15:29:20.892Z,100504.66
2023-02-12T15:31:50.288Z,100505.50
2023-02-12T15:34:17.415Z,100500.13
2023-02-12T15:36:44.472Z,100510.59
2023-02-12T15:39:15.342Z,100506.06
2023-02-12T15:41:43.489Z,100502.16
2023-02-12T15:44:23.613Z,100502.59
2023-02-12T15:47:00.176Z,100502.59
2023-02-12T15:49:27.140Z,100507.34
2023-02-12T15:51:53.682Z,100505.25
2023-02-12T15:54:20.166Z,100501.19
2023-02-12T15:56:46.488Z,100502.19
2023-02-12T15:59:18.736Z,100504.72
2023-02-12T16:01:51.813Z,100495.50
2023-02-12T16:04:18.250Z,100500.44
2023-02-12T16:06:44.594Z,100499.22
2023-02-12T16:09:13.963Z,100509.28
2023-02-12T16:11:40.306Z,100499.63
2023-02-12T16:14:19.362Z,100501.25
2023-02-12T16:16:48.700Z,100508.44
2023-02-12T16:19:22.019Z,100501.84
2023-02-12T16:21:49.879Z,100507.19
2023-02-12T16:24:21.747Z,100519.94
2023-02-12T16:26:48.770Z,100520.75
2023-02-12T16:29:18.157Z,100515.06
2023-02-12T16:31:54.462Z,100514.50
2023-02-12T16:34:27.257Z,100514.50
2023-02-12T16:36:53.588Z,100515.41
2023-02-12T16:39:38.967Z,100522.03
2023-02-12T16:42:09.858Z,100518.84
2023-02-12T16:44:36.219Z,100513.56
2023-02-12T16:47:02.714Z,100511.25
2023-02-12T16:49:29.026Z,100512.69
2023-02-12T16:52:15.327Z,100506.66
2023-02-12T16:54:41.639Z,100508.53
2023-02-12T16:57:09.790Z,100509.94
2023-02-12T16:59:43.302Z,100512.53
2023-02-12T17:02:10.934Z,100513.34
2023-02-12T17:04:37.249Z,100512.66
2023-02-12T17:07:03.589Z,100510.75
2023-02-12T17:09:30.136Z,100510.06
2023-02-12T17:11:57.424Z,100514.84
2023-02-12T17:14:23.734Z,100515.31
2023-02-12T17:16:50.381Z,100519.09
2023-02-12T17:19:17.238Z,100512.66
2023-02-12T17:21:44.102Z,100513.50
2023-02-12T17:24:14.168Z,100518.09
2023-02-12T17:26:40.520Z,100523.91
2023-02-12T17:29:06.840Z,100530.34
2023-02-12T17:31:33.684Z,100530.47
2023-02-12T17:34:00.135Z,100534.31
2023-02-12T17:36:26.548Z,100535.56
2023-02-12T17:38:52.872Z,100542.31
2023-02-12T17:41:19.188Z,100540.34
2023-02-12T17:43:46.333Z,100543.28
2023-02-12T17:46:13.974Z,100543.28
2023-02-12T17:48:40.966Z,100546.16
2023-02-12T17:51:08.712Z,100544.53
2023-02-12T17:53:35.032Z,100548.63
2023-02-12T17:56:01.348Z,100543.75
2023-02-12T17:58:27.707Z,100541.41
2023-02-12T18:00:55.302Z,100543.28
2023-02-12T18:03:21.907Z,100545.59
2023-02-12T18:05:48.242Z,100548.28
2023-02-12T18:08:14.625Z,100544.44
2023-02-12T18:10:41.652Z,100546.75
2023-02-12T18:13:07.996Z,100539.31
2023-02-12T18:15:34.383Z,100537.44
2023-02-12T18:18:00.742Z,100543.75
2023-02-12T18:20:27.490Z,100535.09
2023-02-12T18:22:53.887Z,100535.09
2023-02-12T18:25:20.210Z,100541.19
2023-02-12T18:27:46.549Z,100541.19
2023-02-12T18:30:13.142Z,100541.19
2023-02-12T18:32:39.477Z,100537.44
2023-02-12T18:35:06.311Z,100538.25
2023-02-12T18:37:32.786Z,100525.09
2023-02-12T18:39:59.167Z,100538.50
2023-02-12T18:42:26.113Z,100533.13
2023-02-12T18:44:52.514Z,100533.38
2023-02-12T18:47:19.724Z,100539.91
2023-02-12T18:49:46.092Z,100535.34
2023-02-12T18:52:12.397Z,100538.72
2023-02-12T18:54:38.716Z,100539.78
2023-02-12T18:57:05.044Z,100541.88
2023-02-12T18:59:31.360Z,100538.72
2023-02-12T19:01:57.806Z,100538.38
2023-02-12T19:04:26.487Z,100543.84
2023-02-12T19:06:53.310Z,100536.59
2023-02-12T19:09:20.357Z,100535.84
2023-02-12T19:11:47.427Z,100536.56
2023-02-12T19:14:14.239Z,100527.69
2023-02-12T19:16:40.663Z,100533.88
2023-02-12T19:19:08.167Z,100533.31
2023-02-12T19:21:34.530Z,100533.53
2023-02-12T19:24:01.389Z,100534.22
2023-02-12T19:26:28.834Z,100533.38
2023-02-12T19:28:55.466Z,100537.34
2023-02-12T19:31:21.819Z,100530.38
2023-02-12T19:33:48.641Z,100540.28
2023-02-12T19:36:15.910Z,100525.34
2023-02-12T19:38:42.238Z,100534.56
2023-02-12T19:41:12.795Z,100537.69
2023-02-12T19:43:39.140Z,100536.06
2023-02-12T19:46:06.879Z,100526.84
2023-02-12T19:48:33.213Z,100540.47
2023-02-12T19:50:59.529Z,100539.84
2023-02-12T19:53:25.876Z,100541.72
2023-02-12T19:55:52.183Z,100549.63
2023-02-12T19:58:18.754Z,100542.88
2023-02-12T20:00:45.068Z,100538.78
2023-02-12T20:03:11.729Z,100541.91
2023-02-12T20:05:44.563Z,100543.75
2023-02-12T20:08:10.928Z,100545.03
2023-02-12T20:10:40.520Z,100540.94
2023-02-12T20:13:06.892Z,100550.47
2023-02-12T20:15:34.261Z,100550.69
2023-02-12T20:18:00.616Z,100550.13
2023-02-12T20:20:26.923Z,100550.78
2023-02-12T20:22:53.245Z,100562.19
2023-02-12T20:25:19.600Z,100552.34
2023-02-12T20:27:45.914Z,100552.22
2023-02-12T20:30:12.376Z,100558.38
2023-02-12T20:32:38.712Z,100562.47
2023-02-12T20:35:05.106Z,100564.53
2023-02-12T20:37:33.063Z,100559.44
2023-02-12T20:39:59.378Z,100557.66
2023-02-12T20:42:25.713Z,100562.63
2023-02-12T20:44:52.028Z,100566.59
2023-02-12T20:47:18.334Z,100564.13
2023-02-12T20:49:44.648Z,100561.28
2023-02-12T20:52:11.160Z,100563.38
2023-02-12T20:54:39.260Z,100561.97
2023-02-12T20:57:06.918Z,100555.88
2023-02-12T20:59:33.222Z,100556.09
2023-02-12T21:01:59.554Z,100552.00
2023-02-12T21:04:26.532Z,100549.75
2023-02-12T21:06:53.405Z,100552.84
2023-02-12T21:09:19.896Z,100555.75
2023-02-12T21:11:46.334Z,100549.00
2023-02-12T21:14:23.175Z,100553.91
2023-02-12T21:16:50.108Z,100550.84
2023-02-12T21:19:17.836Z,100545.97
2023-02-12T21:21:45.445Z,100552.34
2023-02-12T21:24:12.855Z,100551.00
2023-02-12T21:26:39.164Z,100549.97
2023-02-12T21:29:05.494Z,100544.13
2023-02-12T21:31:31.929Z,100550.44
2023-02-12T21:33:58.614Z,100549.19
2023-02-12T21:36:28.817Z,100545.69
2023-02-12T21:38:55.181Z,100548.16
2023-02-12T21:41:25.362Z,100549.41
2023-02-12T21:44:11.874Z,100543.84
2023-02-12T21:46:38.188Z,100543.75
2023-02-12T21:49:04.760Z,100542.22
2023-02-12T21:51:32.312Z,100544.25
2023-02-12T21:53:59.341Z,100540.25
2023-02-12T21:56:25.800Z,100540.75
2023-02-12T21:58:52.149Z,100538.75
2023-02-12T22:01:22.814Z,100540.91
2023-02-12T22:03:49.204Z,100536.50
2023-02-12T22:06:17.623Z,100531.09
2023-02-12T22:08:43.943Z,100531.41
2023-02-12T22:11:10.420Z,100534.06
2023-02-12T22:13:37.399Z,100524.41
2023-02-12T22:16:19.901Z,100520.00
2023-02-12T22:18:46.345Z,100513.94
2023-02-12T22:21:13.698Z,100527.38
2023-02-12T22:23:40.126Z,100522.94
2023-02-12T22:26:10.641Z,100517.94
2023-02-12T22:28:40.936Z,100523.66
2023-02-12T22:31:07.901Z,100522.59
2023-02-12T22:33:34.216Z,100515.34
2023-02-12T22:36:07.569Z,100515.22
2023-02-12T22:38:34.288Z,100510.59
2023-02-12T22:41:00.712Z,100514.81
2023-02-12T22:43:30.247Z,100506.88
2023-02-12T22:45:56.714Z,100511.19
2023-02-12T22:48:23.239Z,100509.19
2023-02-12T22:50:49.554Z,100515.44
2023-02-12T22:53:15.921Z,100515.19
2023-02-12T22:55:42.245Z,100516.63
2023-02-12T22:58:08.596Z,100515.34
2023-02-12T23:00:34.907Z,100510.72
2023-02-12T23:03:01.212Z,100508.97
2023-02-12T23:05:27.588Z,100509.78
2023-02-12T23:07:53.905Z,100505.47
2023-02-12T23:10:20.254Z,100518.06
2023-02-12T23:12:46.559Z,100512.69
2023-02-12T23:15:12.877Z,100518.06
2023-02-12T23:17:39.194Z,100511.81
2023-02-12T23:20:05.593Z,100510.00
2023-02-12T23:22:31.916Z,100512.91
2023-02-12T23:24:58.240Z,100517.34
2023-02-12T23:27:24.568Z,100508.28
2023-02-12T23:29:50.880Z,100507.47
2023-02-12T23:32:17.367Z,100506.63
2023-02-12T23:34:43.687Z,100508.41
2023-02-12T23:37:10.012Z,100502.63
2023-02-12T23:39:37.155Z,100490.06
2023-02-12T23:42:03.584Z,100495.78
2023-02-12T23:44:29.945Z,100501.84
2023-02-12T23:46:56.246Z,100506.38
2023-02-12T23:49:22.593Z,100498.69
2023-02-12T23:51:48.968Z,100501.13
2023-02-12T23:54:15.307Z,100507.56
2023-02-12T23:56:41.614Z,100504.50
2023-02-12T23:59:07.925Z,100500.25
